Flight Track Log - Related Links

Times and Time Zones

All times are in EDT time to prevent confusion due to time zone crossing. See the LAK145 flight status page for this flight to view local times or setup timezone preferences in your user account.

Time Position Orientation Groundspeed Altitude Reporting Facility
EDT Latitude Longitude Course Direction KTS MPH feet Rate Location/Type
Sat 10:03:03 35.8236 -78.8556 240° Southwest 213 245 4,300  Level Washington Center
Sat 10:03:39 35.8058 -78.8933 230° Southwest 211 243 6,000 2,865 Climbing Washington Center
Sat 10:04:54 35.8072 -78.9958 271° West 280 322 9,600 2,622 Climbing Washington Center
Sat 10:05:54 35.8064 -79.0931 269° West 268 308 11,900 1,169 Climbing Washington Center
Sat 10:06:52 35.8117 -79.1983 274° West 284 327 11,900 1,210 Level Washington Center
Sat 10:07:53 35.8128 -79.3008 271° West 297 342 14,300 2,231 Climbing Washington Center
Sat 10:08:53 35.8114 -79.4058 269° West 311 358 16,400 2,182 Climbing Washington Center
Sat 10:09:54 35.8122 -79.5133 271° West 311 358 18,700 1,551 Climbing Washington Center
Sat 10:11:51 35.7886 -79.7253 262° West 317 365 21,000 1,119 Climbing Atlanta Center
Sat 10:12:51 35.7694 -79.8389 258° West 347 399 22,000 1,350 Climbing Atlanta Center
Sat 10:13:51 35.7483 -79.9500 257° West 354 407 23,700 1,100 Climbing Atlanta Center
Sat 10:14:51 35.7561 -80.0672 275° West 354 407 24,200 1,200 Climbing Atlanta Center
Sat 10:15:51 35.8361 -80.1503 320° Northwest 324 373 26,100 1,900 Climbing Atlanta Center
Sat 10:16:51 35.9242 -80.2308 323° Northwest 339 390 28,000 950 Climbing Atlanta Center
Sat 10:17:51 36.0056 -80.3039 324° Northwest 344 396 28,000  Level Atlanta Center
Sat 10:18:51 36.0936 -80.3872 323° Northwest 376 433 28,000  Level Atlanta Center
Sat 10:19:51 36.1881 -80.4758 323° Northwest 401 461 28,000  Level Atlanta Center
Sat 10:20:51 36.2822 -80.5617 324° Northwest 415 478 28,000  Level Atlanta Center
Sat 10:21:51 36.3828 -80.6528 324° Northwest 433 498 28,000  Level Atlanta Center
Sat 10:22:51 36.4769 -80.7417 323° Northwest 433 498 28,000  Level Atlanta Center
Sat 10:23:51 36.5667 -80.8233 324° Northwest 439 505 28,000  Level Atlanta Center
Sat 10:25:22 36.7144 -80.9622 323° Northwest 434 499 28,000  Level Indianapolis Center
Sat 10:26:24 36.8097 -81.0514 323° Northwest 435 501 28,000  Level Indianapolis Center
Sat 10:27:25 36.9047 -81.1394 323° Northwest 435 501 28,000  Level Indianapolis Center
Sat 10:28:26 37.0181 -81.2494 322° Northwest 436 502 28,000  Level Indianapolis Center
Sat 10:29:28 37.1119 -81.3367 323° Northwest 436 502 28,000  Level Indianapolis Center
Sat 10:30:29 37.2083 -81.4297 322° Northwest 437 503 28,000 -590 Level Indianapolis Center
Sat 10:31:30 37.3053 -81.5197 324° Northwest 437 503 26,800 -1,756 Descending Indianapolis Center
Sat 10:32:32 37.4142 -81.6244 323° Northwest 429 494 24,400 -2,244 Descending Indianapolis Center
Sat 10:33:33 37.5047 -81.7114 323° Northwest 417 480 22,200 -2,000 Descending Indianapolis Center
Sat 10:34:35 37.5922 -81.7964 322° Northwest 404 465 20,300 -1,756 Descending Indianapolis Center
Sat 10:35:36 37.6756 -81.8800 322° Northwest 390 449 18,600 -1,623 Descending Indianapolis Center
Sat 10:36:37 37.7594 -81.9594 323° Northwest 383 441 17,000 -1,512 Descending Indianapolis Center
Sat 10:37:39 37.8397 -82.0406 321° Northwest 377 434 15,500 -1,463 Descending Indianapolis Center
Sat 10:38:40 37.9197 -82.1156 324° Northwest 374 430 14,000 -1,561 Descending Indianapolis Center
Sat 10:39:42 37.9969 -82.1956 321° Northwest 358 412 12,300 -1,707 Descending Indianapolis Center
Sat 10:40:43 38.0850 -82.2789 323° Northwest 345 397 10,500 -1,623 Descending Indianapolis Center
Sat 10:41:44 38.1589 -82.3531 322° Northwest 337 388 9,000 -1,512 Descending Indianapolis Center
Sat 10:42:46 38.2219 -82.4164 322° Northwest 304 350 7,400 -1,902 Descending Indianapolis Center
Sat 10:43:47 38.2794 -82.4744 322° Northwest 271 312 5,100 -2,115 Descending Indianapolis Center
Sat 10:44:48 38.3194 -82.5492 304° West 267 307 3,100 -1,366 Descending Indianapolis Center
Sat 10:45:50 38.3478 -82.6264 295° West 251 289 2,300 -585 Descending Indianapolis Center
Sat 10:46:51 38.3894 -82.6169 10° North 193 222 1,900 -393 Descending Indianapolis Center
Sat 10:48:00 38.3685 -82.5604 108° East  Level Estimated
Sat 10:55:00 38.3685 -82.5604 108° East  Level Estimated
Sat 10:56:00 38.3685 -82.5604 108° East  Level Estimated
Sat 10:57:00 38.3685 -82.5604 108° East  Level Estimated
Sat 10:58:00 38.3685 -82.5604 108° East  Level Estimated
Sat 10:59:00 38.3685 -82.5604 108° East  Level Estimated
Sat 11:00:00 38.3685 -82.5604 108° East  Level Estimated
Sat 11:01:00 38.3685 -82.5604 108° East  Level Estimated
Sat 11:02:00 38.3685 -82.5604 108° East  Level Estimated
Sat 11:03:00 38.3685 -82.5604 108° East  Level Estimated

Login

Don't have an account? Register now (free) for customized features, flight alerts, and more!